createdAt,value
2023-02-05T00:00:04.475Z,2.97
2023-02-05T00:02:31.088Z,1.67
2023-02-05T00:04:57.664Z,3.60
2023-02-05T00:07:24.585Z,3.60
2023-02-05T00:09:51.146Z,5.43
2023-02-05T00:12:17.839Z,2.37
2023-02-05T00:14:44.554Z,2.77
2023-02-05T00:17:11.102Z,2.00
2023-02-05T00:19:37.615Z,3.17
2023-02-05T00:22:04.173Z,3.57
2023-02-05T00:27:02.313Z,3.40
2023-02-05T00:29:28.951Z,2.27
2023-02-05T00:31:55.475Z,2.87
2023-02-05T00:34:22.058Z,3.07
2023-02-05T00:36:48.597Z,2.10
2023-02-05T00:39:15.956Z,2.63
2023-02-05T00:41:42.568Z,1.90
2023-02-05T00:44:09.078Z,1.90
2023-02-05T00:46:35.664Z,2.77
2023-02-05T00:49:02.191Z,2.40
2023-02-05T00:51:28.729Z,1.97
2023-02-05T00:53:55.298Z,2.07
2023-02-05T00:56:21.933Z,1.70
2023-02-05T00:58:49.942Z,2.50
2023-02-05T01:01:17.174Z,2.47
2023-02-05T01:03:43.989Z,2.33
2023-02-05T01:08:42.025Z,2.67
2023-02-05T01:11:12.986Z,2.50
2023-02-05T01:13:39.676Z,3.40
2023-02-05T01:16:07.616Z,2.23
2023-02-05T01:18:34.168Z,2.37
2023-02-05T01:23:32.384Z,3.43
2023-02-05T01:25:59.025Z,3.43
2023-02-05T01:28:25.565Z,2.20
2023-02-05T01:30:52.154Z,2.33
2023-02-05T01:38:21.969Z,2.40
2023-02-05T01:46:12.442Z,1.40
2023-02-05T01:48:43.926Z,3.77
2023-02-05T02:01:43.214Z,1.23
2023-02-05T02:06:42.479Z,2.13
2023-02-05T02:11:43.327Z,2.57
2023-02-05T02:14:11.157Z,1.93
2023-02-05T02:22:33.368Z,2.07
2023-02-05T02:33:40.961Z,2.53
2023-02-05T02:36:43.418Z,1.30
2023-02-05T02:55:31.799Z,2.63
2023-02-05T02:58:01.114Z,2.90
2023-02-05T03:05:41.788Z,1.30
2023-02-05T03:18:42.637Z,1.67
2023-02-05T03:24:12.923Z,1.47
2023-02-05T03:34:42.449Z,2.67
2023-02-05T03:51:41.389Z,2.60
2023-02-05T03:59:51.013Z,2.03
2023-02-05T04:07:21.450Z,2.17
2023-02-05T04:14:50.856Z,1.80
2023-02-05T04:24:51.652Z,2.03
2023-02-05T04:32:21.214Z,1.63
2023-02-05T04:39:51.193Z,1.80
2023-02-05T04:47:20.945Z,2.27
2023-02-05T04:57:22.139Z,2.10
2023-02-05T05:04:51.803Z,1.80
2023-02-05T05:12:21.328Z,1.40
2023-02-05T05:19:50.823Z,1.53
2023-02-05T05:53:11.879Z,2.00
2023-02-05T06:15:52.203Z,1.17
2023-02-05T06:38:31.118Z,1.27
2023-02-05T06:48:32.270Z,1.87
2023-02-05T06:56:01.770Z,2.00
2023-02-05T07:03:31.246Z,1.97
2023-02-05T07:06:05.501Z,2.13
2023-02-05T07:08:32.414Z,1.33
2023-02-05T07:13:30.920Z,1.13
2023-02-05T07:21:04.286Z,1.40
2023-02-05T07:23:31.459Z,1.60
2023-02-05T07:31:12.791Z,1.47
2023-02-05T07:36:13.827Z,1.27
2023-02-05T07:41:14.411Z,1.90
2023-02-05T07:43:41.496Z,1.43
2023-02-05T07:46:10.972Z,1.33
2023-02-05T07:56:22.077Z,1.43
2023-02-05T08:03:52.223Z,1.47
2023-02-05T08:11:22.064Z,2.03
2023-02-05T08:16:20.989Z,1.87
2023-02-05T08:21:21.852Z,1.73
2023-02-05T08:28:52.138Z,2.63
2023-02-05T08:33:52.981Z,1.80
2023-02-05T08:38:50.968Z,2.33
2023-02-05T08:46:25.061Z,2.03
2023-02-05T08:48:52.124Z,2.03
2023-02-05T08:53:51.164Z,4.80
2023-02-05T08:56:19.962Z,3.60
2023-02-05T08:58:46.856Z,3.83
2023-02-05T09:01:15.339Z,2.20
2023-02-05T09:03:41.944Z,8.73
2023-02-05T09:06:13.232Z,12.17
2023-02-05T09:11:13.462Z,11.27
2023-02-05T09:16:12.219Z,13.00
2023-02-05T09:21:11.396Z,11.27
2023-02-05T09:23:38.153Z,12.83
2023-02-05T09:26:05.588Z,11.97
2023-02-05T09:28:32.353Z,14.90
2023-02-05T09:36:16.040Z,13.67
2023-02-05T09:38:42.788Z,15.80
2023-02-05T09:41:14.741Z,14.03
2023-02-05T09:44:05.570Z,14.33
2023-02-05T09:47:01.343Z,14.17
2023-02-05T09:49:32.483Z,12.73
2023-02-05T09:54:46.218Z,10.77
2023-02-05T10:13:24.060Z,11.53
2023-02-05T10:16:23.116Z,9.83
2023-02-05T10:19:05.241Z,8.20
2023-02-05T10:22:13.734Z,11.30
2023-02-05T10:27:56.359Z,8.80
2023-02-05T10:36:05.032Z,10.13
2023-02-05T10:38:42.721Z,6.37
2023-02-05T10:41:26.077Z,11.13
2023-02-05T10:44:13.289Z,6.23
2023-02-05T10:49:15.140Z,6.03
2023-02-05T10:51:44.521Z,8.57
2023-02-05T11:12:52.150Z,6.43
2023-02-05T11:18:02.928Z,6.43
2023-02-05T11:20:34.844Z,4.33
2023-02-05T11:23:15.830Z,5.73
2023-02-05T11:28:35.820Z,6.03
2023-02-05T11:31:38.144Z,9.03
2023-02-05T11:34:07.804Z,5.33
2023-02-05T11:36:36.559Z,7.33
2023-02-05T11:39:05.204Z,4.77
2023-02-05T11:41:33.153Z,5.90
2023-02-05T11:46:42.811Z,6.03
2023-02-05T11:49:22.571Z,7.33
2023-02-05T11:51:52.890Z,5.33
2023-02-05T11:54:32.487Z,5.33
2023-02-05T11:57:07.749Z,5.53
2023-02-05T11:59:36.230Z,7.03
2023-02-05T12:19:22.526Z,6.87
2023-02-05T12:27:32.545Z,4.87
2023-02-05T12:39:22.703Z,7.70
2023-02-05T12:42:14.887Z,5.60
2023-02-05T12:45:22.500Z,4.80
2023-02-05T12:51:14.041Z,3.63
2023-02-05T12:53:52.704Z,4.60
2023-02-05T12:56:44.825Z,5.43
2023-02-05T12:59:24.065Z,6.13
2023-02-05T13:02:05.892Z,5.70
2023-02-05T13:07:34.945Z,8.23
2023-02-05T13:10:17.119Z,6.40
2023-02-05T13:15:24.024Z,7.00
2023-02-05T13:29:35.148Z,5.27
2023-02-05T13:32:15.320Z,4.93
2023-02-05T13:34:43.112Z,5.57
2023-02-05T13:40:45.565Z,5.23
2023-02-05T13:43:47.060Z,7.57
2023-02-05T13:46:46.590Z,5.87
2023-02-05T13:49:25.126Z,5.37
2023-02-05T13:51:54.439Z,6.83
2023-02-05T13:57:12.739Z,7.57
2023-02-05T13:59:43.675Z,8.43
2023-02-05T14:05:04.259Z,7.00
2023-02-05T14:10:35.113Z,5.37
2023-02-05T14:15:53.949Z,5.87
2023-02-05T14:26:57.379Z,5.37
2023-02-05T14:29:44.606Z,4.90
2023-02-05T14:38:20.214Z,5.53
2023-02-05T14:41:14.229Z,5.37
2023-02-05T14:43:46.353Z,8.23
2023-02-05T14:46:39.702Z,6.43
2023-02-05T14:49:20.632Z,4.97
2023-02-05T14:51:59.184Z,4.90
2023-02-05T14:54:32.241Z,5.50
2023-02-05T14:57:19.215Z,6.67
2023-02-05T15:05:43.410Z,6.90
2023-02-05T15:08:28.544Z,5.80
2023-02-05T15:11:23.007Z,5.97
2023-02-05T15:17:09.788Z,4.63
2023-02-05T15:19:56.275Z,5.57
2023-02-05T15:22:34.816Z,6.83
2023-02-05T15:25:07.964Z,6.57
2023-02-05T15:28:25.328Z,5.70
2023-02-05T15:31:04.022Z,5.03
2023-02-05T15:33:43.060Z,6.47
2023-02-05T15:39:05.754Z,4.80
2023-02-05T15:41:33.852Z,8.03
2023-02-05T15:44:02.887Z,7.00
2023-02-05T15:46:32.624Z,5.67
2023-02-05T15:49:00.515Z,5.07
2023-02-05T15:51:35.649Z,5.00
2023-02-05T15:54:04.005Z,5.93
2023-02-05T15:56:39.290Z,9.70
2023-02-05T15:59:14.623Z,5.53
2023-02-05T16:01:46.735Z,5.53
2023-02-05T16:04:22.531Z,5.63
2023-02-05T16:06:49.759Z,5.13
2023-02-05T16:11:48.730Z,4.47
2023-02-05T16:14:18.380Z,5.57
2023-02-05T16:16:56.313Z,5.13
2023-02-05T16:19:52.472Z,6.33
2023-02-05T16:22:38.221Z,8.53
2023-02-05T16:25:40.137Z,8.43
2023-02-05T16:28:16.682Z,5.17
2023-02-05T16:30:45.677Z,5.03
2023-02-05T16:33:25.064Z,4.37
2023-02-05T16:35:52.374Z,6.30
2023-02-05T16:38:21.827Z,6.73
2023-02-05T16:40:54.165Z,6.67
2023-02-05T16:43:40.513Z,6.67
2023-02-05T16:46:07.083Z,6.33
2023-02-05T16:48:45.211Z,7.53
2023-02-05T16:51:35.526Z,7.20
2023-02-05T16:54:27.140Z,5.93
2023-02-05T16:57:04.581Z,5.23
2023-02-05T16:59:58.007Z,4.97
2023-02-05T17:02:36.819Z,5.57
2023-02-05T17:05:25.675Z,8.90
2023-02-05T17:08:12.117Z,6.13
2023-02-05T17:10:53.448Z,5.80
2023-02-05T17:13:40.083Z,7.97
2023-02-05T17:16:30.054Z,9.73
2023-02-05T17:19:02.011Z,6.60
2023-02-05T17:21:37.610Z,6.57
2023-02-05T17:24:08.924Z,5.40
2023-02-05T17:26:40.770Z,5.23
2023-02-05T17:29:13.739Z,6.27
2023-02-05T17:31:40.372Z,7.67
2023-02-05T17:34:06.972Z,6.03
2023-02-05T17:36:33.529Z,7.83
2023-02-05T17:39:00.074Z,6.50
2023-02-05T17:41:50.076Z,6.20
2023-02-05T17:44:17.183Z,8.43
2023-02-05T17:46:44.525Z,6.23
2023-02-05T17:49:11.513Z,5.77
2023-02-05T17:51:41.549Z,5.60
2023-02-05T17:54:17.075Z,7.83
2023-02-05T17:56:45.465Z,6.30
2023-02-05T17:59:14.653Z,6.63
2023-02-05T18:01:41.219Z,8.13
2023-02-05T18:04:07.822Z,7.30
2023-02-05T18:06:35.303Z,6.03
2023-02-05T18:09:01.862Z,7.50
2023-02-05T18:11:28.442Z,5.70
2023-02-05T18:13:55.039Z,5.67
2023-02-05T18:16:21.657Z,5.23
2023-02-05T18:18:49.099Z,6.17
2023-02-05T18:21:15.718Z,6.17
2023-02-05T18:23:42.611Z,4.97
2023-02-05T18:26:09.707Z,5.70
2023-02-05T18:28:36.311Z,4.37
2023-02-05T18:31:06.457Z,6.17
2023-02-05T18:33:33.196Z,8.30
2023-02-05T18:36:20.061Z,5.53
2023-02-05T18:38:46.633Z,4.80
2023-02-05T18:41:16.269Z,5.17
2023-02-05T18:43:43.528Z,5.83
2023-02-05T18:46:16.777Z,5.30
2023-02-05T18:48:45.516Z,5.57
2023-02-05T18:51:14.529Z,7.73
2023-02-05T18:56:20.339Z,6.33
2023-02-05T19:01:37.925Z,6.57
2023-02-05T19:04:07.140Z,6.60
2023-02-05T19:06:33.972Z,5.43
2023-02-05T19:09:01.201Z,4.73
2023-02-05T19:11:29.034Z,3.97
2023-02-05T19:16:35.461Z,6.40
2023-02-05T19:19:03.331Z,3.73
2023-02-05T19:21:31.341Z,4.07
2023-02-05T19:24:01.531Z,4.57
2023-02-05T19:26:29.240Z,4.40
2023-02-05T19:28:58.455Z,4.63
2023-02-05T19:31:28.366Z,11.13
2023-02-05T19:33:58.786Z,5.27
2023-02-05T19:36:25.971Z,5.03
2023-02-05T19:38:53.725Z,5.50
2023-02-05T19:41:23.246Z,6.23
2023-02-05T19:46:27.047Z,5.33
2023-02-05T19:48:55.846Z,7.63
2023-02-05T19:53:57.274Z,6.63
2023-02-05T19:56:24.428Z,5.10
2023-02-05T19:58:53.813Z,5.53
2023-02-05T20:01:28.951Z,5.93
2023-02-05T20:03:57.993Z,6.40
2023-02-05T20:06:27.292Z,4.57
2023-02-05T20:08:53.952Z,4.23
2023-02-05T20:11:21.080Z,4.70
2023-02-05T20:13:48.315Z,4.80
2023-02-05T20:16:20.233Z,5.00
2023-02-05T20:18:47.656Z,4.20
2023-02-05T20:21:16.556Z,4.87
2023-02-05T20:23:43.122Z,3.77
2023-02-05T20:26:10.632Z,5.87
2023-02-05T20:29:00.582Z,3.93
2023-02-05T20:31:35.084Z,4.57
2023-02-05T20:36:31.224Z,3.90
2023-02-05T20:38:59.304Z,4.70
2023-02-05T20:41:26.381Z,5.10
2023-02-05T20:43:53.622Z,3.17
2023-02-05T20:46:20.682Z,4.87
2023-02-05T20:48:48.344Z,3.63
2023-02-05T20:51:17.313Z,5.03
2023-02-05T20:53:44.378Z,4.57
2023-02-05T20:56:13.729Z,5.07
2023-02-05T20:58:40.588Z,5.73
2023-02-05T21:01:11.266Z,6.40
2023-02-05T21:03:39.290Z,8.37
2023-02-05T21:06:06.069Z,6.30
2023-02-05T21:11:04.471Z,6.07
2023-02-05T21:13:31.085Z,4.87
2023-02-05T21:15:59.560Z,5.33
2023-02-05T21:18:27.205Z,4.47
2023-02-05T21:20:54.083Z,5.17
2023-02-05T21:23:21.452Z,6.20
2023-02-05T21:25:48.210Z,3.47
2023-02-05T21:28:15.780Z,5.03
2023-02-05T21:30:43.668Z,5.27
2023-02-05T21:33:10.274Z,3.57
2023-02-05T21:35:38.778Z,4.10
2023-02-05T21:38:05.346Z,4.50
2023-02-05T21:40:33.392Z,7.27
2023-02-05T21:43:00.101Z,7.80
2023-02-05T21:45:26.747Z,6.57
2023-02-05T21:47:53.604Z,3.90
2023-02-05T21:50:20.348Z,6.40
2023-02-05T21:52:46.947Z,3.83
2023-02-05T21:55:13.481Z,4.23
2023-02-05T21:57:40.065Z,8.87
2023-02-05T22:00:06.929Z,5.20
2023-02-05T22:02:33.467Z,5.20
2023-02-05T22:05:00.000Z,4.60
2023-02-05T22:07:26.580Z,8.10
2023-02-05T22:09:53.176Z,3.97
2023-02-05T22:12:19.760Z,2.67
2023-02-05T22:14:47.907Z,7.57
2023-02-05T22:17:14.563Z,8.07
2023-02-05T22:22:13.768Z,4.20
2023-02-05T22:24:40.371Z,7.53
2023-02-05T22:27:07.139Z,5.20
2023-02-05T22:29:33.780Z,3.80
2023-02-05T22:32:00.347Z,4.60
2023-02-05T22:34:27.639Z,4.13
2023-02-05T22:36:54.226Z,3.83
2023-02-05T22:39:20.815Z,6.00
2023-02-05T22:41:47.374Z,4.07
2023-02-05T22:44:13.899Z,5.50
2023-02-05T22:49:17.115Z,6.27
2023-02-05T22:51:44.203Z,4.33
2023-02-05T22:56:45.647Z,3.53
2023-02-05T23:01:44.640Z,5.30
2023-02-05T23:04:11.387Z,3.73
2023-02-05T23:06:40.770Z,3.77
2023-02-05T23:09:17.062Z,5.40
2023-02-05T23:11:43.978Z,2.70
2023-02-05T23:16:47.330Z,5.30
2023-02-05T23:19:18.469Z,5.43
2023-02-05T23:21:45.882Z,3.43
2023-02-05T23:24:13.560Z,3.17
2023-02-05T23:26:44.188Z,4.63
2023-02-05T23:31:44.083Z,3.43
2023-02-05T23:34:11.052Z,3.07
2023-02-05T23:36:38.176Z,4.33
2023-02-05T23:39:05.281Z,3.27
2023-02-05T23:41:39.448Z,2.63
2023-02-05T23:44:07.846Z,3.07
2023-02-05T23:46:35.409Z,2.83
2023-02-05T23:51:34.270Z,4.50
2023-02-05T23:56:33.154Z,2.63
2023-02-05T23:59:00.232Z,2.93
